sensor_id;sensor_type;location;lat;lon;timestamp;P1;durP1;ratioP1;P2;durP2;ratioP2
17253;SDS011;32542;52.832;13.816;2023-05-13T00:00:06;11.90;;;5.07;;
17253;SDS011;32542;52.832;13.816;2023-05-13T00:03:09;10.57;;;4.65;;
17253;SDS011;32542;52.832;13.816;2023-05-13T00:06:12;13.60;;;4.97;;
17253;SDS011;32542;52.832;13.816;2023-05-13T00:09:15;8.52;;;4.70;;
17253;SDS011;32542;52.832;13.816;2023-05-13T00:12:19;10.50;;;4.78;;
17253;SDS011;32542;52.832;13.816;2023-05-13T00:15:22;9.68;;;4.80;;
17253;SDS011;32542;52.832;13.816;2023-05-13T00:18:25;9.82;;;4.55;;
17253;SDS011;32542;52.832;13.816;2023-05-13T00:21:28;8.20;;;4.90;;
17253;SDS011;32542;52.832;13.816;2023-05-13T00:24:32;9.93;;;5.18;;
17253;SDS011;32542;52.832;13.816;2023-05-13T00:27:36;9.52;;;4.25;;
17253;SDS011;32542;52.832;13.816;2023-05-13T00:30:39;14.18;;;4.60;;
17253;SDS011;32542;52.832;13.816;2023-05-13T00:33:44;13.77;;;6.18;;
17253;SDS011;32542;52.832;13.816;2023-05-13T00:36:47;10.27;;;5.00;;
17253;SDS011;32542;52.832;13.816;2023-05-13T00:39:50;10.02;;;4.93;;
17253;SDS011;32542;52.832;13.816;2023-05-13T00:42:54;10.30;;;4.50;;
17253;SDS011;32542;52.832;13.816;2023-05-13T00:45:57;7.00;;;3.95;;
17253;SDS011;32542;52.832;13.816;2023-05-13T00:49:00;8.25;;;4.38;;
17253;SDS011;32542;52.832;13.816;2023-05-13T00:52:05;10.48;;;4.75;;
17253;SDS011;32542;52.832;13.816;2023-05-13T00:55:09;7.80;;;4.43;;
17253;SDS011;32542;52.832;13.816;2023-05-13T00:58:13;8.43;;;4.72;;
17253;SDS011;32542;52.832;13.816;2023-05-13T01:01:19;11.57;;;4.47;;
17253;SDS011;32542;52.832;13.816;2023-05-13T01:04:30;10.75;;;4.60;;
17253;SDS011;32542;52.832;13.816;2023-05-13T01:07:41;7.75;;;4.60;;
17253;SDS011;32542;52.832;13.816;2023-05-13T01:10:49;6.15;;;4.00;;
17253;SDS011;32542;52.832;13.816;2023-05-13T01:14:00;10.65;;;4.43;;
17253;SDS011;32542;52.832;13.816;2023-05-13T01:17:09;7.45;;;4.05;;
17253;SDS011;32542;52.832;13.816;2023-05-13T01:20:16;7.32;;;4.35;;
17253;SDS011;32542;52.832;13.816;2023-05-13T01:23:24;7.55;;;4.60;;
17253;SDS011;32542;52.832;13.816;2023-05-13T01:26:27;7.00;;;4.15;;
17253;SDS011;32542;52.832;13.816;2023-05-13T01:29:31;7.43;;;4.07;;
17253;SDS011;32542;52.832;13.816;2023-05-13T01:32:36;8.80;;;4.38;;
17253;SDS011;32542;52.832;13.816;2023-05-13T01:35:39;6.15;;;3.92;;
17253;SDS011;32542;52.832;13.816;2023-05-13T01:38:45;7.10;;;4.30;;
17253;SDS011;32542;52.832;13.816;2023-05-13T01:41:52;7.25;;;4.30;;
17253;SDS011;32542;52.832;13.816;2023-05-13T01:44:54;6.72;;;4.35;;
17253;SDS011;32542;52.832;13.816;2023-05-13T01:47:57;7.32;;;4.00;;
17253;SDS011;32542;52.832;13.816;2023-05-13T01:51:09;8.93;;;4.18;;
17253;SDS011;32542;52.832;13.816;2023-05-13T01:54:14;7.28;;;4.13;;
17253;SDS011;32542;52.832;13.816;2023-05-13T01:57:22;7.55;;;4.30;;
17253;SDS011;32542;52.832;13.816;2023-05-13T02:00:24;6.47;;;3.83;;
17253;SDS011;32542;52.832;13.816;2023-05-13T02:03:27;10.25;;;4.97;;
17253;SDS011;32542;52.832;13.816;2023-05-13T02:06:30;8.93;;;4.45;;
17253;SDS011;32542;52.832;13.816;2023-05-13T02:09:35;6.40;;;3.90;;
17253;SDS011;32542;52.832;13.816;2023-05-13T02:12:39;6.47;;;4.32;;
17253;SDS011;32542;52.832;13.816;2023-05-13T02:15:42;7.00;;;4.03;;
17253;SDS011;32542;52.832;13.816;2023-05-13T02:18:44;5.82;;;3.70;;
17253;SDS011;32542;52.832;13.816;2023-05-13T02:21:47;9.23;;;4.07;;
17253;SDS011;32542;52.832;13.816;2023-05-13T02:24:52;8.48;;;4.15;;
17253;SDS011;32542;52.832;13.816;2023-05-13T02:27:54;6.45;;;3.88;;
17253;SDS011;32542;52.832;13.816;2023-05-13T02:30:57;6.47;;;3.75;;
17253;SDS011;32542;52.832;13.816;2023-05-13T02:34:01;7.05;;;3.75;;
17253;SDS011;32542;52.832;13.816;2023-05-13T02:37:04;6.30;;;3.60;;
17253;SDS011;32542;52.832;13.816;2023-05-13T02:40:15;5.40;;;3.85;;
17253;SDS011;32542;52.832;13.816;2023-05-13T02:43:19;6.57;;;3.92;;
17253;SDS011;32542;52.832;13.816;2023-05-13T02:46:30;6.00;;;3.60;;
17253;SDS011;32542;52.832;13.816;2023-05-13T02:49:33;7.43;;;4.25;;
17253;SDS011;32542;52.832;13.816;2023-05-13T02:52:36;8.88;;;4.03;;
17253;SDS011;32542;52.832;13.816;2023-05-13T02:55:42;13.95;;;3.80;;
17253;SDS011;32542;52.832;13.816;2023-05-13T02:58:45;4.80;;;3.20;;
17253;SDS011;32542;52.832;13.816;2023-05-13T03:01:48;8.27;;;4.45;;
17253;SDS011;32542;52.832;13.816;2023-05-13T03:04:50;7.15;;;3.72;;
17253;SDS011;32542;52.832;13.816;2023-05-13T03:07:55;6.13;;;3.35;;
17253;SDS011;32542;52.832;13.816;2023-05-13T03:11:01;6.60;;;3.55;;
17253;SDS011;32542;52.832;13.816;2023-05-13T03:14:06;6.28;;;4.03;;
17253;SDS011;32542;52.832;13.816;2023-05-13T03:17:09;6.40;;;3.78;;
17253;SDS011;32542;52.832;13.816;2023-05-13T03:20:12;5.38;;;3.55;;
17253;SDS011;32542;52.832;13.816;2023-05-13T03:23:15;4.80;;;3.40;;
17253;SDS011;32542;52.832;13.816;2023-05-13T03:26:22;6.70;;;3.22;;
17253;SDS011;32542;52.832;13.816;2023-05-13T03:29:25;6.85;;;3.42;;
17253;SDS011;32542;52.832;13.816;2023-05-13T03:32:28;5.55;;;3.38;;
17253;SDS011;32542;52.832;13.816;2023-05-13T03:35:33;5.25;;;3.55;;
17253;SDS011;32542;52.832;13.816;2023-05-13T03:38:36;6.45;;;3.70;;
17253;SDS011;32542;52.832;13.816;2023-05-13T03:41:41;4.82;;;3.25;;
17253;SDS011;32542;52.832;13.816;2023-05-13T03:44:44;7.05;;;3.47;;
17253;SDS011;32542;52.832;13.816;2023-05-13T03:47:46;6.97;;;3.63;;
17253;SDS011;32542;52.832;13.816;2023-05-13T03:50:52;6.35;;;3.55;;
17253;SDS011;32542;52.832;13.816;2023-05-13T03:53:56;5.90;;;3.83;;
17253;SDS011;32542;52.832;13.816;2023-05-13T03:57:00;5.68;;;3.58;;
17253;SDS011;32542;52.832;13.816;2023-05-13T04:00:03;4.50;;;3.30;;
17253;SDS011;32542;52.832;13.816;2023-05-13T04:03:14;6.60;;;3.22;;
17253;SDS011;32542;52.832;13.816;2023-05-13T04:06:18;5.50;;;3.35;;
17253;SDS011;32542;52.832;13.816;2023-05-13T04:09:22;6.55;;;3.35;;
17253;SDS011;32542;52.832;13.816;2023-05-13T04:12:26;4.75;;;3.63;;
17253;SDS011;32542;52.832;13.816;2023-05-13T04:15:29;5.90;;;3.22;;
17253;SDS011;32542;52.832;13.816;2023-05-13T04:18:32;5.55;;;3.17;;
17253;SDS011;32542;52.832;13.816;2023-05-13T04:21:35;5.75;;;3.50;;
17253;SDS011;32542;52.832;13.816;2023-05-13T04:24:38;5.95;;;3.40;;
17253;SDS011;32542;52.832;13.816;2023-05-13T04:27:43;6.20;;;3.22;;
17253;SDS011;32542;52.832;13.816;2023-05-13T04:30:56;3.40;;;2.80;;
17253;SDS011;32542;52.832;13.816;2023-05-13T04:33:58;5.85;;;3.00;;
17253;SDS011;32542;52.832;13.816;2023-05-13T04:37:01;5.03;;;3.17;;
17253;SDS011;32542;52.832;13.816;2023-05-13T04:40:05;4.35;;;2.92;;
17253;SDS011;32542;52.832;13.816;2023-05-13T04:43:10;5.65;;;3.58;;
17253;SDS011;32542;52.832;13.816;2023-05-13T04:46:21;4.93;;;2.97;;
17253;SDS011;32542;52.832;13.816;2023-05-13T04:49:25;5.90;;;2.95;;
17253;SDS011;32542;52.832;13.816;2023-05-13T04:52:28;4.75;;;3.15;;
17253;SDS011;32542;52.832;13.816;2023-05-13T04:55:31;4.25;;;3.30;;
17253;SDS011;32542;52.832;13.816;2023-05-13T04:58:37;5.47;;;3.22;;
17253;SDS011;32542;52.832;13.816;2023-05-13T05:01:41;5.50;;;3.33;;
17253;SDS011;32542;52.832;13.816;2023-05-13T05:04:44;4.43;;;3.20;;
17253;SDS011;32542;52.832;13.816;2023-05-13T05:07:50;4.25;;;2.88;;
17253;SDS011;32542;52.832;13.816;2023-05-13T05:10:54;5.55;;;3.00;;
17253;SDS011;32542;52.832;13.816;2023-05-13T05:13:59;5.07;;;3.03;;
17253;SDS011;32542;52.832;13.816;2023-05-13T05:17:01;4.38;;;2.97;;
17253;SDS011;32542;52.832;13.816;2023-05-13T05:20:05;4.72;;;2.92;;
17253;SDS011;32542;52.832;13.816;2023-05-13T05:23:09;4.40;;;2.85;;
17253;SDS011;32542;52.832;13.816;2023-05-13T05:26:12;6.50;;;2.92;;
17253;SDS011;32542;52.832;13.816;2023-05-13T05:29:18;3.60;;;2.65;;
17253;SDS011;32542;52.832;13.816;2023-05-13T05:32:20;6.28;;;3.40;;
17253;SDS011;32542;52.832;13.816;2023-05-13T05:35:24;4.63;;;2.90;;
17253;SDS011;32542;52.832;13.816;2023-05-13T05:38:28;4.00;;;2.97;;
17253;SDS011;32542;52.832;13.816;2023-05-13T05:41:32;4.03;;;2.83;;
17253;SDS011;32542;52.832;13.816;2023-05-13T05:44:37;4.05;;;2.88;;
17253;SDS011;32542;52.832;13.816;2023-05-13T05:47:41;3.88;;;2.80;;
17253;SDS011;32542;52.832;13.816;2023-05-13T05:50:45;4.47;;;2.90;;
17253;SDS011;32542;52.832;13.816;2023-05-13T05:53:56;4.82;;;3.20;;
17253;SDS011;32542;52.832;13.816;2023-05-13T05:56:58;6.80;;;3.03;;
17253;SDS011;32542;52.832;13.816;2023-05-13T06:00:03;8.02;;;3.05;;
17253;SDS011;32542;52.832;13.816;2023-05-13T06:03:15;11.23;;;3.65;;
17253;SDS011;32542;52.832;13.816;2023-05-13T06:06:18;6.88;;;3.38;;
17253;SDS011;32542;52.832;13.816;2023-05-13T06:09:21;9.75;;;3.65;;
17253;SDS011;32542;52.832;13.816;2023-05-13T06:12:24;7.60;;;3.03;;
17253;SDS011;32542;52.832;13.816;2023-05-13T06:15:28;7.53;;;3.42;;
17253;SDS011;32542;52.832;13.816;2023-05-13T06:18:31;7.82;;;3.30;;
17253;SDS011;32542;52.832;13.816;2023-05-13T06:21:34;11.88;;;3.20;;
17253;SDS011;32542;52.832;13.816;2023-05-13T06:24:37;8.93;;;3.63;;
17253;SDS011;32542;52.832;13.816;2023-05-13T06:27:42;8.43;;;3.83;;
17253;SDS011;32542;52.832;13.816;2023-05-13T06:30:47;7.10;;;3.10;;
17253;SDS011;32542;52.832;13.816;2023-05-13T06:33:49;7.22;;;3.45;;
17253;SDS011;32542;52.832;13.816;2023-05-13T06:36:52;8.45;;;3.10;;
17253;SDS011;32542;52.832;13.816;2023-05-13T06:39:55;10.27;;;2.90;;
17253;SDS011;32542;52.832;13.816;2023-05-13T06:42:59;6.40;;;3.42;;
17253;SDS011;32542;52.832;13.816;2023-05-13T06:46:06;7.32;;;3.20;;
17253;SDS011;32542;52.832;13.816;2023-05-13T06:49:10;7.45;;;2.83;;
17253;SDS011;32542;52.832;13.816;2023-05-13T06:52:12;11.98;;;3.28;;
17253;SDS011;32542;52.832;13.816;2023-05-13T06:55:15;6.85;;;2.92;;
17253;SDS011;32542;52.832;13.816;2023-05-13T06:58:19;4.68;;;2.83;;
17253;SDS011;32542;52.832;13.816;2023-05-13T07:01:23;5.53;;;3.00;;
17253;SDS011;32542;52.832;13.816;2023-05-13T07:04:28;8.93;;;3.50;;
17253;SDS011;32542;52.832;13.816;2023-05-13T07:07:31;5.40;;;3.25;;
17253;SDS011;32542;52.832;13.816;2023-05-13T07:10:34;4.57;;;3.00;;
17253;SDS011;32542;52.832;13.816;2023-05-13T07:13:37;5.05;;;3.15;;
17253;SDS011;32542;52.832;13.816;2023-05-13T07:16:41;7.95;;;3.28;;
17253;SDS011;32542;52.832;13.816;2023-05-13T07:19:44;6.00;;;3.30;;
17253;SDS011;32542;52.832;13.816;2023-05-13T07:22:47;7.28;;;3.50;;
17253;SDS011;32542;52.832;13.816;2023-05-13T07:25:50;6.35;;;3.20;;
17253;SDS011;32542;52.832;13.816;2023-05-13T07:28:55;7.10;;;3.22;;
17253;SDS011;32542;52.832;13.816;2023-05-13T07:32:03;6.03;;;3.25;;
17253;SDS011;32542;52.832;13.816;2023-05-13T07:35:06;4.93;;;2.65;;
17253;SDS011;32542;52.832;13.816;2023-05-13T07:38:10;5.65;;;3.20;;
17253;SDS011;32542;52.832;13.816;2023-05-13T07:41:13;8.80;;;2.90;;
17253;SDS011;32542;52.832;13.816;2023-05-13T07:44:16;10.35;;;3.78;;
17253;SDS011;32542;52.832;13.816;2023-05-13T07:47:20;6.68;;;3.17;;
17253;SDS011;32542;52.832;13.816;2023-05-13T07:50:23;8.00;;;3.00;;
17253;SDS011;32542;52.832;13.816;2023-05-13T07:53:26;9.15;;;2.95;;
17253;SDS011;32542;52.832;13.816;2023-05-13T07:56:29;6.63;;;2.90;;
17253;SDS011;32542;52.832;13.816;2023-05-13T07:59:32;6.18;;;2.83;;
17253;SDS011;32542;52.832;13.816;2023-05-13T08:02:37;4.95;;;2.78;;
17253;SDS011;32542;52.832;13.816;2023-05-13T08:05:40;7.95;;;2.60;;
17253;SDS011;32542;52.832;13.816;2023-05-13T08:08:42;4.85;;;3.05;;
17253;SDS011;32542;52.832;13.816;2023-05-13T08:11:45;8.57;;;3.00;;
17253;SDS011;32542;52.832;13.816;2023-05-13T08:14:48;5.28;;;2.83;;
17253;SDS011;32542;52.832;13.816;2023-05-13T08:17:52;4.50;;;2.75;;
17253;SDS011;32542;52.832;13.816;2023-05-13T08:20:55;6.07;;;2.80;;
17253;SDS011;32542;52.832;13.816;2023-05-13T08:23:58;8.57;;;2.63;;
17253;SDS011;32542;52.832;13.816;2023-05-13T08:27:01;7.25;;;2.28;;
17253;SDS011;32542;52.832;13.816;2023-05-13T08:30:06;4.30;;;2.40;;
17253;SDS011;32542;52.832;13.816;2023-05-13T08:33:11;5.35;;;2.58;;
17253;SDS011;32542;52.832;13.816;2023-05-13T08:36:14;5.28;;;2.50;;
17253;SDS011;32542;52.832;13.816;2023-05-13T08:39:17;6.72;;;2.20;;
17253;SDS011;32542;52.832;13.816;2023-05-13T08:42:20;5.07;;;2.60;;
17253;SDS011;32542;52.832;13.816;2023-05-13T08:45:24;6.53;;;2.63;;
17253;SDS011;32542;52.832;13.816;2023-05-13T08:48:32;6.88;;;2.45;;
17253;SDS011;32542;52.832;13.816;2023-05-13T08:51:35;7.45;;;2.90;;
17253;SDS011;32542;52.832;13.816;2023-05-13T08:54:38;12.93;;;3.45;;
17253;SDS011;32542;52.832;13.816;2023-05-13T08:57:43;7.55;;;2.92;;
17253;SDS011;32542;52.832;13.816;2023-05-13T09:00:47;9.80;;;2.60;;
17253;SDS011;32542;52.832;13.816;2023-05-13T09:03:54;9.38;;;2.75;;
17253;SDS011;32542;52.832;13.816;2023-05-13T09:07:00;14.88;;;2.97;;
17253;SDS011;32542;52.832;13.816;2023-05-13T09:10:03;9.10;;;3.45;;
17253;SDS011;32542;52.832;13.816;2023-05-13T09:13:06;7.72;;;2.42;;
17253;SDS011;32542;52.832;13.816;2023-05-13T09:16:09;9.63;;;2.50;;
17253;SDS011;32542;52.832;13.816;2023-05-13T09:19:14;8.40;;;2.63;;
17253;SDS011;32542;52.832;13.816;2023-05-13T09:22:17;6.05;;;2.50;;
17253;SDS011;32542;52.832;13.816;2023-05-13T09:25:20;3.25;;;2.03;;
17253;SDS011;32542;52.832;13.816;2023-05-13T09:28:25;6.68;;;2.70;;
17253;SDS011;32542;52.832;13.816;2023-05-13T09:31:31;9.90;;;2.60;;
17253;SDS011;32542;52.832;13.816;2023-05-13T09:34:36;10.75;;;2.42;;
17253;SDS011;32542;52.832;13.816;2023-05-13T09:37:38;9.48;;;2.30;;
17253;SDS011;32542;52.832;13.816;2023-05-13T09:40:48;4.53;;;2.22;;
17253;SDS011;32542;52.832;13.816;2023-05-13T09:43:53;4.88;;;2.28;;
17253;SDS011;32542;52.832;13.816;2023-05-13T09:46:56;5.20;;;2.20;;
17253;SDS011;32542;52.832;13.816;2023-05-13T09:50:01;3.22;;;2.22;;
17253;SDS011;32542;52.832;13.816;2023-05-13T09:53:08;5.05;;;2.55;;
17253;SDS011;32542;52.832;13.816;2023-05-13T09:56:12;4.00;;;2.40;;
17253;SDS011;32542;52.832;13.816;2023-05-13T09:59:15;3.60;;;2.17;;
17253;SDS011;32542;52.832;13.816;2023-05-13T10:02:18;4.20;;;2.40;;
17253;SDS011;32542;52.832;13.816;2023-05-13T10:05:22;7.07;;;2.45;;
17253;SDS011;32542;52.832;13.816;2023-05-13T10:08:26;3.33;;;2.00;;
17253;SDS011;32542;52.832;13.816;2023-05-13T10:11:30;3.85;;;2.13;;
17253;SDS011;32542;52.832;13.816;2023-05-13T10:14:34;5.43;;;2.30;;
17253;SDS011;32542;52.832;13.816;2023-05-13T10:17:38;6.25;;;2.38;;
17253;SDS011;32542;52.832;13.816;2023-05-13T10:20:44;3.25;;;2.00;;
17253;SDS011;32542;52.832;13.816;2023-05-13T10:23:47;5.38;;;1.98;;
17253;SDS011;32542;52.832;13.816;2023-05-13T10:26:52;8.32;;;3.08;;
17253;SDS011;32542;52.832;13.816;2023-05-13T10:29:56;6.18;;;2.10;;
17253;SDS011;32542;52.832;13.816;2023-05-13T10:33:03;7.38;;;2.20;;
17253;SDS011;32542;52.832;13.816;2023-05-13T10:36:15;5.25;;;2.25;;
17253;SDS011;32542;52.832;13.816;2023-05-13T10:39:37;5.47;;;2.45;;
17253;SDS011;32542;52.832;13.816;2023-05-13T10:43:06;3.47;;;2.50;;
17253;SDS011;32542;52.832;13.816;2023-05-13T10:46:13;4.38;;;2.20;;
17253;SDS011;32542;52.832;13.816;2023-05-13T10:49:16;5.25;;;2.50;;
17253;SDS011;32542;52.832;13.816;2023-05-13T10:52:20;6.53;;;2.38;;
17253;SDS011;32542;52.832;13.816;2023-05-13T10:55:24;3.80;;;1.90;;
17253;SDS011;32542;52.832;13.816;2023-05-13T10:58:28;3.05;;;2.13;;
17253;SDS011;32542;52.832;13.816;2023-05-13T11:01:32;4.90;;;2.25;;
17253;SDS011;32542;52.832;13.816;2023-05-13T11:04:36;4.07;;;2.20;;
17253;SDS011;32542;52.832;13.816;2023-05-13T11:08:00;6.50;;;2.30;;
17253;SDS011;32542;52.832;13.816;2023-05-13T11:11:15;5.80;;;2.13;;
17253;SDS011;32542;52.832;13.816;2023-05-13T11:14:19;5.07;;;2.75;;
17253;SDS011;32542;52.832;13.816;2023-05-13T11:17:23;7.75;;;2.40;;
17253;SDS011;32542;52.832;13.816;2023-05-13T11:20:26;5.35;;;2.13;;
17253;SDS011;32542;52.832;13.816;2023-05-13T11:23:31;4.80;;;2.58;;
17253;SDS011;32542;52.832;13.816;2023-05-13T11:26:44;4.43;;;2.55;;
17253;SDS011;32542;52.832;13.816;2023-05-13T11:29:48;8.60;;;2.42;;
17253;SDS011;32542;52.832;13.816;2023-05-13T11:32:52;5.78;;;2.40;;
17253;SDS011;32542;52.832;13.816;2023-05-13T11:35:57;6.20;;;2.60;;
17253;SDS011;32542;52.832;13.816;2023-05-13T11:39:06;6.20;;;3.40;;
17253;SDS011;32542;52.832;13.816;2023-05-13T11:42:11;9.32;;;3.65;;
17253;SDS011;32542;52.832;13.816;2023-05-13T11:45:14;4.45;;;3.40;;
17253;SDS011;32542;52.832;13.816;2023-05-13T11:48:18;9.30;;;3.85;;
17253;SDS011;32542;52.832;13.816;2023-05-13T11:51:22;7.88;;;3.83;;
17253;SDS011;32542;52.832;13.816;2023-05-13T11:54:27;7.18;;;3.58;;
17253;SDS011;32542;52.832;13.816;2023-05-13T11:57:30;6.50;;;2.72;;
17253;SDS011;32542;52.832;13.816;2023-05-13T12:00:33;7.22;;;2.97;;
17253;SDS011;32542;52.832;13.816;2023-05-13T12:03:36;8.75;;;2.55;;
17253;SDS011;32542;52.832;13.816;2023-05-13T12:06:42;4.90;;;2.70;;
17253;SDS011;32542;52.832;13.816;2023-05-13T12:09:48;5.47;;;2.50;;
17253;SDS011;32542;52.832;13.816;2023-05-13T12:12:51;4.88;;;2.47;;
17253;SDS011;32542;52.832;13.816;2023-05-13T12:15:54;11.15;;;3.08;;
17253;SDS011;32542;52.832;13.816;2023-05-13T12:18:58;5.57;;;2.47;;
17253;SDS011;32542;52.832;13.816;2023-05-13T12:22:01;7.20;;;2.65;;
17253;SDS011;32542;52.832;13.816;2023-05-13T12:28:42;7.53;;;2.65;;
17253;SDS011;32542;52.832;13.816;2023-05-13T12:35:05;11.88;;;2.28;;
17253;SDS011;32542;52.832;13.816;2023-05-13T12:38:15;4.72;;;2.35;;
17253;SDS011;32542;52.832;13.816;2023-05-13T12:41:21;3.72;;;2.60;;
17253;SDS011;32542;52.832;13.816;2023-05-13T12:44:26;4.00;;;2.30;;
17253;SDS011;32542;52.832;13.816;2023-05-13T12:47:30;8.68;;;2.28;;
17253;SDS011;32542;52.832;13.816;2023-05-13T12:50:48;3.55;;;2.17;;
17253;SDS011;32542;52.832;13.816;2023-05-13T12:53:52;6.10;;;2.50;;
17253;SDS011;32542;52.832;13.816;2023-05-13T12:56:57;7.05;;;2.33;;
17253;SDS011;32542;52.832;13.816;2023-05-13T13:00:00;3.38;;;2.30;;
17253;SDS011;32542;52.832;13.816;2023-05-13T13:03:03;7.20;;;2.05;;
17253;SDS011;32542;52.832;13.816;2023-05-13T13:06:06;3.67;;;2.10;;
17253;SDS011;32542;52.832;13.816;2023-05-13T13:09:10;7.82;;;2.40;;
17253;SDS011;32542;52.832;13.816;2023-05-13T13:12:15;4.30;;;2.38;;
17253;SDS011;32542;52.832;13.816;2023-05-13T13:15:18;5.20;;;2.15;;
17253;SDS011;32542;52.832;13.816;2023-05-13T13:18:21;5.93;;;2.20;;
17253;SDS011;32542;52.832;13.816;2023-05-13T13:21:24;4.25;;;2.10;;
17253;SDS011;32542;52.832;13.816;2023-05-13T13:24:27;4.88;;;2.10;;
17253;SDS011;32542;52.832;13.816;2023-05-13T13:27:32;7.43;;;2.20;;
17253;SDS011;32542;52.832;13.816;2023-05-13T13:30:35;3.95;;;2.13;;
17253;SDS011;32542;52.832;13.816;2023-05-13T13:33:38;2.50;;;2.30;;
17253;SDS011;32542;52.832;13.816;2023-05-13T13:36:41;3.53;;;2.05;;
17253;SDS011;32542;52.832;13.816;2023-05-13T13:39:43;3.15;;;1.85;;
17253;SDS011;32542;52.832;13.816;2023-05-13T13:42:48;3.40;;;2.30;;
17253;SDS011;32542;52.832;13.816;2023-05-13T13:45:50;3.95;;;2.10;;
17253;SDS011;32542;52.832;13.816;2023-05-13T13:48:53;4.47;;;2.10;;
17253;SDS011;32542;52.832;13.816;2023-05-13T13:51:56;7.95;;;2.00;;
17253;SDS011;32542;52.832;13.816;2023-05-13T13:54:59;2.72;;;2.00;;
17253;SDS011;32542;52.832;13.816;2023-05-13T13:58:03;2.30;;;1.63;;
17253;SDS011;32542;52.832;13.816;2023-05-13T14:01:06;4.05;;;2.03;;
17253;SDS011;32542;52.832;13.816;2023-05-13T14:04:09;5.88;;;1.98;;
17253;SDS011;32542;52.832;13.816;2023-05-13T14:07:13;5.32;;;1.77;;
17253;SDS011;32542;52.832;13.816;2023-05-13T14:10:16;4.53;;;1.95;;
17253;SDS011;32542;52.832;13.816;2023-05-13T14:13:20;3.28;;;1.83;;
17253;SDS011;32542;52.832;13.816;2023-05-13T14:16:23;2.47;;;1.70;;
17253;SDS011;32542;52.832;13.816;2023-05-13T14:19:26;2.92;;;1.88;;
17253;SDS011;32542;52.832;13.816;2023-05-13T14:22:28;3.35;;;2.00;;
17253;SDS011;32542;52.832;13.816;2023-05-13T14:25:31;3.28;;;1.90;;
17253;SDS011;32542;52.832;13.816;2023-05-13T14:28:36;2.53;;;1.80;;
17253;SDS011;32542;52.832;13.816;2023-05-13T14:31:38;4.30;;;2.10;;
17253;SDS011;32542;52.832;13.816;2023-05-13T14:34:41;2.53;;;1.88;;
17253;SDS011;32542;52.832;13.816;2023-05-13T14:37:44;4.55;;;1.77;;
17253;SDS011;32542;52.832;13.816;2023-05-13T14:40:47;6.82;;;2.67;;
17253;SDS011;32542;52.832;13.816;2023-05-13T14:43:51;4.55;;;1.80;;
17253;SDS011;32542;52.832;13.816;2023-05-13T14:46:54;3.67;;;1.70;;
17253;SDS011;32542;52.832;13.816;2023-05-13T14:49:57;6.75;;;2.00;;
17253;SDS011;32542;52.832;13.816;2023-05-13T14:53:00;2.65;;;1.92;;
17253;SDS011;32542;52.832;13.816;2023-05-13T14:56:03;7.25;;;1.80;;
17253;SDS011;32542;52.832;13.816;2023-05-13T14:59:07;4.70;;;1.98;;
17253;SDS011;32542;52.832;13.816;2023-05-13T15:02:10;4.95;;;2.15;;
17253;SDS011;32542;52.832;13.816;2023-05-13T15:05:14;3.58;;;2.00;;
17253;SDS011;32542;52.832;13.816;2023-05-13T15:08:17;5.13;;;2.15;;
17253;SDS011;32542;52.832;13.816;2023-05-13T15:11:20;11.35;;;2.60;;
17253;SDS011;32542;52.832;13.816;2023-05-13T15:14:24;3.83;;;1.73;;
17253;SDS011;32542;52.832;13.816;2023-05-13T15:17:28;11.38;;;2.22;;
17253;SDS011;32542;52.832;13.816;2023-05-13T15:20:31;6.03;;;2.55;;
17253;SDS011;32542;52.832;13.816;2023-05-13T15:23:34;11.18;;;2.10;;
17253;SDS011;32542;52.832;13.816;2023-05-13T15:26:37;8.75;;;2.22;;
17253;SDS011;32542;52.832;13.816;2023-05-13T15:29:41;5.40;;;1.98;;
17253;SDS011;32542;52.832;13.816;2023-05-13T15:32:44;10.35;;;2.30;;
17253;SDS011;32542;52.832;13.816;2023-05-13T15:35:46;5.13;;;1.92;;
17253;SDS011;32542;52.832;13.816;2023-05-13T15:38:49;6.88;;;2.30;;
17253;SDS011;32542;52.832;13.816;2023-05-13T15:41:52;4.63;;;1.92;;
17253;SDS011;32542;52.832;13.816;2023-05-13T15:44:56;2.28;;;2.05;;
17253;SDS011;32542;52.832;13.816;2023-05-13T15:47:59;4.85;;;2.50;;
17253;SDS011;32542;52.832;13.816;2023-05-13T15:51:02;9.38;;;2.42;;
17253;SDS011;32542;52.832;13.816;2023-05-13T15:54:07;4.00;;;2.20;;
17253;SDS011;32542;52.832;13.816;2023-05-13T15:57:10;5.25;;;2.30;;
17253;SDS011;32542;52.832;13.816;2023-05-13T16:00:15;3.70;;;2.33;;
17253;SDS011;32542;52.832;13.816;2023-05-13T16:03:18;5.43;;;2.53;;
17253;SDS011;32542;52.832;13.816;2023-05-13T16:06:21;6.55;;;2.20;;
17253;SDS011;32542;52.832;13.816;2023-05-13T16:09:24;4.13;;;2.50;;
17253;SDS011;32542;52.832;13.816;2023-05-13T16:12:27;6.18;;;2.40;;
17253;SDS011;32542;52.832;13.816;2023-05-13T16:15:32;6.95;;;2.72;;
17253;SDS011;32542;52.832;13.816;2023-05-13T16:18:35;6.80;;;2.50;;
17253;SDS011;32542;52.832;13.816;2023-05-13T16:21:39;7.40;;;2.60;;
17253;SDS011;32542;52.832;13.816;2023-05-13T16:24:42;4.70;;;2.50;;
17253;SDS011;32542;52.832;13.816;2023-05-13T16:27:45;5.35;;;2.55;;
17253;SDS011;32542;52.832;13.816;2023-05-13T16:30:49;3.80;;;2.47;;
17253;SDS011;32542;52.832;13.816;2023-05-13T16:33:52;6.20;;;2.70;;
17253;SDS011;32542;52.832;13.816;2023-05-13T16:36:55;3.05;;;2.22;;
17253;SDS011;32542;52.832;13.816;2023-05-13T16:39:59;4.00;;;2.50;;
17253;SDS011;32542;52.832;13.816;2023-05-13T16:43:02;4.18;;;2.20;;
17253;SDS011;32542;52.832;13.816;2023-05-13T16:46:06;3.47;;;2.55;;
17253;SDS011;32542;52.832;13.816;2023-05-13T16:49:09;4.13;;;2.42;;
17253;SDS011;32542;52.832;13.816;2023-05-13T16:52:12;4.40;;;2.42;;
17253;SDS011;32542;52.832;13.816;2023-05-13T16:55:15;3.90;;;2.20;;
17253;SDS011;32542;52.832;13.816;2023-05-13T16:58:18;5.53;;;2.05;;
17253;SDS011;32542;52.832;13.816;2023-05-13T17:01:22;3.53;;;2.05;;
17253;SDS011;32542;52.832;13.816;2023-05-13T17:04:25;3.63;;;2.38;;
17253;SDS011;32542;52.832;13.816;2023-05-13T17:07:28;3.67;;;2.28;;
17253;SDS011;32542;52.832;13.816;2023-05-13T17:10:31;6.43;;;2.45;;
17253;SDS011;32542;52.832;13.816;2023-05-13T17:13:34;4.03;;;2.08;;
17253;SDS011;32542;52.832;13.816;2023-05-13T17:16:38;6.32;;;2.20;;
17253;SDS011;32542;52.832;13.816;2023-05-13T17:19:42;4.18;;;2.45;;
17253;SDS011;32542;52.832;13.816;2023-05-13T17:22:45;5.25;;;2.22;;
17253;SDS011;32542;52.832;13.816;2023-05-13T17:25:48;9.77;;;2.63;;
17253;SDS011;32542;52.832;13.816;2023-05-13T17:28:51;7.75;;;2.40;;
17253;SDS011;32542;52.832;13.816;2023-05-13T17:31:55;9.38;;;2.58;;
17253;SDS011;32542;52.832;13.816;2023-05-13T17:34:58;11.32;;;2.90;;
17253;SDS011;32542;52.832;13.816;2023-05-13T17:38:01;8.95;;;2.38;;
17253;SDS011;32542;52.832;13.816;2023-05-13T17:41:04;7.00;;;2.33;;
17253;SDS011;32542;52.832;13.816;2023-05-13T17:44:06;8.43;;;2.47;;
17253;SDS011;32542;52.832;13.816;2023-05-13T17:47:11;9.38;;;2.65;;
17253;SDS011;32542;52.832;13.816;2023-05-13T17:50:14;9.60;;;2.30;;
17253;SDS011;32542;52.832;13.816;2023-05-13T17:53:19;6.25;;;2.75;;
17253;SDS011;32542;52.832;13.816;2023-05-13T17:56:22;6.03;;;2.25;;
17253;SDS011;32542;52.832;13.816;2023-05-13T17:59:25;8.68;;;2.90;;
17253;SDS011;32542;52.832;13.816;2023-05-13T18:02:29;6.82;;;2.30;;
17253;SDS011;32542;52.832;13.816;2023-05-13T18:05:32;9.80;;;2.75;;
17253;SDS011;32542;52.832;13.816;2023-05-13T18:08:35;4.20;;;2.30;;
17253;SDS011;32542;52.832;13.816;2023-05-13T18:11:38;3.60;;;2.22;;
17253;SDS011;32542;52.832;13.816;2023-05-13T18:14:41;5.68;;;2.38;;
17253;SDS011;32542;52.832;13.816;2023-05-13T18:17:45;4.35;;;2.47;;